Time,TemperatureF,DewpointF,PressureIn,WindDirection,WindDirectionDegrees,WindSpeedMPH,WindSpeedGustMPH,Humidity,HourlyPrecipIn,Conditions,Clouds,dailyrainin,SoftwareType,DateUTC
2013-03-22 00:00:00,17.7,11.1,29.96,NW,315,0.0,5.0,75,0.00,,,-99.99,WeatherLink 5.6,2013-03-22 04:00:00,
2013-03-22 00:30:00,18.0,11.4,29.96,NW,315,3.0,6.0,75,0.00,,,-99.99,WeatherLink 5.6,2013-03-22 04:30:00,
2013-03-22 01:00:00,17.4,10.8,29.98,NW,315,3.0,6.0,75,0.00,,,-99.99,WeatherLink 5.6,2013-03-22 05:00:00,
2013-03-22 01:30:00,17.8,11.2,29.96,NW,315,3.0,6.0,75,0.00,,,-99.99,WeatherLink 5.6,2013-03-22 05:30:00,
2013-03-22 02:00:00,17.6,11.3,29.96,NW,315,3.0,7.0,76,0.00,,,-99.99,WeatherLink 5.6,2013-03-22 06:00:00,
2013-03-22 02:30:00,16.6,10.9,29.95,NW,315,3.0,6.0,78,0.00,,,-99.99,WeatherLink 5.6,2013-03-22 06:30:00,
2013-03-22 03:00:00,16.7,10.7,29.95,NW,315,1.0,5.0,77,0.00,,,-99.99,WeatherLink 5.6,2013-03-22 07:00:00,
2013-03-22 03:30:00,16.9,11.2,29.96,WNW,292,1.0,4.0,78,0.00,,,-99.99,WeatherLink 5.6,2013-03-22 07:30:00,
2013-03-22 04:00:00,16.8,10.8,29.94,WNW,292,0.0,4.0,77,0.00,,,-99.99,WeatherLink 5.6,2013-03-22 08:00:00,
2013-03-22 04:30:00,16.0,10.9,29.94,North,-999,0.0,0.0,80,0.00,,,-99.99,WeatherLink 5.6,2013-03-22 08:30:00,
2013-03-22 05:00:00,15.6,10.8,29.94,North,-999,0.0,0.0,81,0.00,,,-99.99,WeatherLink 5.6,2013-03-22 09:00:00,
2013-03-22 05:30:00,16.0,10.9,29.93,WNW,292,0.0,3.0,80,0.00,,,-99.99,WeatherLink 5.6,2013-03-22 09:30:00,
2013-03-22 05:50:00,16.8,10.8,29.93,West,270,1.0,3.0,77,0.00,,,-99.99,WeatherLink 5.6,2013-03-22 09:50:00,
2013-03-22 06:10:00,16.6,10.6,29.95,West,270,2.0,4.0,77,0.00,,,-99.99,WeatherLink 5.6,2013-03-22 10:10:00,
2013-03-22 06:40:00,16.9,10.6,29.97,West,270,0.0,2.0,76,0.00,,,-99.99,WeatherLink 5.6,2013-03-22 10:40:00,
2013-03-22 07:10:00,17.0,10.4,29.98,West,270,1.0,3.0,75,0.00,,,-99.99,WeatherLink 5.6,2013-03-22 11:10:00,
2013-03-22 07:40:00,17.3,10.1,29.99,West,270,0.0,1.0,73,0.00,,,-99.99,WeatherLink 5.6,2013-03-22 11:40:00,
2013-03-22 08:10:00,19.1,12.5,29.99,North,-999,0.0,0.0,75,0.00,,,-99.99,WeatherLink 5.6,2013-03-22 12:10:00,
2013-03-22 08:40:00,21.2,12.3,30.00,West,270,0.0,1.0,68,0.00,,,-99.99,WeatherLink 5.6,2013-03-22 12:40:00,
2013-03-22 09:10:00,22.5,14.2,29.99,North,-999,0.0,0.0,70,0.00,,,-99.99,WeatherLink 5.6,2013-03-22 13:10:00,
2013-03-22 09:40:00,22.7,13.4,30.00,South,180,0.0,3.0,67,0.00,,,-99.99,WeatherLink 5.6,2013-03-22 13:40:00,
2013-03-22 10:10:00,24.6,14.9,29.99,SE,135,0.0,3.0,66,0.00,,,-99.99,WeatherLink 5.6,2013-03-22 14:10:00,
2013-03-22 10:40:00,24.3,12.4,30.01,NNW,337,0.0,4.0,60,0.00,,,-99.99,WeatherLink 5.6,2013-03-22 14:40:00,
2013-03-22 11:10:00,25.6,13.2,30.01,NNW,337,1.0,7.0,59,0.00,,,-99.99,WeatherLink 5.6,2013-03-22 15:10:00,
2013-03-22 11:40:00,28.1,14.0,30.00,North,0,1.0,7.0,55,0.00,,,-99.99,WeatherLink 5.6,2013-03-22 15:40:00,
2013-03-22 12:10:00,29.4,13.9,29.99,NNW,337,0.0,6.0,52,0.00,,,-99.99,WeatherLink 5.6,2013-03-22 16:10:00,
2013-03-22 12:40:00,29.9,13.5,29.96,NNW,337,1.0,9.0,50,0.00,,,-99.99,WeatherLink 5.6,2013-03-22 16:40:00,
2013-03-22 13:10:00,31.7,13.7,29.95,NNW,337,1.0,7.0,47,0.00,,,-99.99,WeatherLink 5.6,2013-03-22 17:10:00,
2013-03-22 13:40:00,33.6,16.0,29.94,NW,315,3.0,12.0,48,0.00,,,-99.99,WeatherLink 5.6,2013-03-22 17:40:00,
2013-03-22 14:10:00,36.2,19.3,29.93,NW,315,1.0,7.0,50,0.00,,,-99.99,WeatherLink 5.6,2013-03-22 18:10:00,
2013-03-22 14:40:00,36.6,15.6,29.92,WNW,292,1.0,10.0,42,0.00,,,-99.99,WeatherLink 5.6,2013-03-22 18:40:00,
2013-03-22 15:10:00,38.9,16.0,29.91,ENE,67,1.0,20.0,39,0.00,,,-99.99,WeatherLink 5.6,2013-03-22 19:10:00,
2013-03-22 15:40:00,38.4,16.1,29.91,West,270,1.0,7.0,40,0.00,,,-99.99,WeatherLink 5.6,2013-03-22 19:40:00,
2013-03-22 16:10:00,39.8,18.5,29.90,SSE,157,1.0,10.0,42,0.00,,,-99.99,WeatherLink 5.6,2013-03-22 20:10:00,
2013-03-22 16:40:00,40.1,17.1,29.90,East,90,1.0,5.0,39,0.00,,,-99.99,WeatherLink 5.6,2013-03-22 20:40:00,
2013-03-22 17:10:00,41.2,18.7,29.89,SSW,202,1.0,9.0,40,0.00,,,-99.99,WeatherLink 5.6,2013-03-22 21:10:00,
2013-03-22 17:40:00,40.0,18.2,29.90,SSE,157,1.0,10.0,41,0.00,,,-99.99,WeatherLink 5.6,2013-03-22 21:40:00,
2013-03-22 18:10:00,39.0,17.8,29.89,South,180,3.0,12.0,42,0.00,,,-99.99,WeatherLink 5.6,2013-03-22 22:10:00,
2013-03-22 18:41:00,37.8,17.3,29.91,South,180,5.0,14.0,43,0.00,,,-99.99,WeatherLink 5.6,2013-03-22 22:41:00,
2013-03-22 19:11:00,36.5,15.0,29.92,South,180,5.0,16.0,41,0.00,,,-99.99,WeatherLink 5.6,2013-03-22 23:11:00,
2013-03-22 19:40:00,36.0,15.1,29.93,South,180,2.0,7.0,42,0.00,,,-99.99,WeatherLink 5.6,2013-03-22 23:40:00,
2013-03-22 20:10:00,35.7,15.9,29.93,South,180,2.0,6.0,44,0.00,,,-99.99,WeatherLink 5.6,2013-03-23 00:10:00,
2013-03-22 21:30:00,35.3,16.0,29.93,SSW,202,2.0,5.0,45,0.00,,,-99.99,WeatherLink 5.6,2013-03-23 01:30:00,
2013-03-22 22:00:00,35.0,16.3,29.93,SSW,202,1.0,5.0,46,0.00,,,-99.99,WeatherLink 5.6,2013-03-23 02:00:00,
2013-03-22 22:30:00,34.4,15.2,29.93,SSW,202,2.0,6.0,45,0.00,,,-99.99,WeatherLink 5.6,2013-03-23 02:30:00,
2013-03-22 23:00:00,34.4,15.7,29.94,SSW,202,2.0,7.0,46,0.00,,,-99.99,WeatherLink 5.6,2013-03-23 03:00:00,
2013-03-22 23:30:00,34.4,16.2,29.94,SW,225,0.0,3.0,47,0.00,,,-99.99,WeatherLink 5.6,2013-03-23 03:30:00,